AAL2256 KLAX-KLAS
Flight info
| Callsign | AAL2256 |
|---|---|
| Flight time | 0h 46m |
| Altitude | 27000 |
| Route | ORCKA5 MISEN RNDRZ4 |
| Aircraft | B77W/H-SDE1E2E3FGHIJ2J3J4J5M1RWXY/LB1D1 |
Departure
| Time | 2026-05-03 20:15 |
|---|---|
| Airport | Los Angeles International Airport (KLAX) |
Arrival
| Time | 2026-05-03 21:01 |
|---|---|
| Airport | Harry Reid International Airport (KLAS) |
| Time | Latitude | Longitude | Altitude | Speed | Heading |
|---|---|---|---|---|---|
| 2026-05-03 20:15 | 33.91562 | -118.50888 | 3771 ft | 250 kts | 249° |
| 2026-05-03 20:15 | 33.90916 | -118.52856 | 4525 ft | 255 kts | 250° |
| 2026-05-03 20:15 | 33.90263 | -118.54870 | 5257 ft | 261 kts | 250° |
| 2026-05-03 20:15 | 33.89608 | -118.56902 | 6144 ft | 259 kts | 250° |
| 2026-05-03 20:16 | 33.88953 | -118.58911 | 7045 ft | 256 kts | 249° |
| 2026-05-03 20:16 | 33.88009 | -118.60748 | 7545 ft | 269 kts | 222° |
| 2026-05-03 20:16 | 33.86314 | -118.61667 | 8257 ft | 274 kts | 187° |
| 2026-05-03 20:16 | 33.84434 | -118.61393 | 9040 ft | 276 kts | 160° |
| 2026-05-03 20:17 | 33.82775 | -118.60188 | 9642 ft | 285 kts | 137° |
| 2026-05-03 20:17 | 33.81669 | -118.58204 | 10182 ft | 294 kts | 108° |
| 2026-05-03 20:17 | 33.81435 | -118.55707 | 10418 ft | 315 kts | 81° |
| 2026-05-03 20:17 | 33.82211 | -118.53184 | 10664 ft | 333 kts | 54° |
| 2026-05-03 20:18 | 33.83921 | -118.51247 | 10961 ft | 347 kts | 30° |
| 2026-05-03 20:18 | 33.86091 | -118.49849 | 11265 ft | 361 kts | 26° |
| 2026-05-03 20:18 | 33.88301 | -118.48363 | 12002 ft | 367 kts | 32° |
| 2026-05-03 20:18 | 33.90367 | -118.46533 | 12974 ft | 369 kts | 37° |
| 2026-05-03 20:19 | 33.92310 | -118.44490 | 13879 ft | 374 kts | 44° |
| 2026-05-03 20:19 | 33.93987 | -118.42118 | 14707 ft | 380 kts | 52° |
| 2026-05-03 20:19 | 33.95511 | -118.39431 | 15528 ft | 386 kts | 55° |
| 2026-05-03 20:19 | 33.96995 | -118.36763 | 16338 ft | 391 kts | 54° |
| 2026-05-03 20:20 | 33.98532 | -118.34045 | 17145 ft | 395 kts | 54° |
| 2026-05-03 20:20 | 34.00091 | -118.31293 | 17920 ft | 399 kts | 54° |
| 2026-05-03 20:20 | 34.01665 | -118.28517 | 18678 ft | 404 kts | 54° |
| 2026-05-03 20:20 | 34.03261 | -118.25704 | 19422 ft | 408 kts | 54° |
| 2026-05-03 20:21 | 34.04871 | -118.22863 | 20132 ft | 413 kts | 54° |
| 2026-05-03 20:21 | 34.06498 | -118.19990 | 20826 ft | 417 kts | 54° |
| 2026-05-03 20:21 | 34.08141 | -118.17086 | 21487 ft | 422 kts | 54° |
| 2026-05-03 20:21 | 34.09805 | -118.14145 | 22149 ft | 426 kts | 54° |
| 2026-05-03 20:22 | 34.11481 | -118.11178 | 22787 ft | 430 kts | 54° |
| 2026-05-03 20:22 | 34.13170 | -118.08185 | 23408 ft | 434 kts | 54° |
| 2026-05-03 20:22 | 34.14870 | -118.05171 | 24086 ft | 435 kts | 54° |
| 2026-05-03 20:22 | 34.16569 | -118.02156 | 24867 ft | 433 kts | 55° |
| 2026-05-03 20:23 | 34.18259 | -117.99151 | 25600 ft | 433 kts | 55° |
| 2026-05-03 20:23 | 34.19955 | -117.96136 | 26233 ft | 435 kts | 55° |
| 2026-05-03 20:23 | 34.21654 | -117.93112 | 26879 ft | 436 kts | 55° |
| 2026-05-03 20:23 | 34.23364 | -117.90066 | 27003 ft | 440 kts | 55° |
| 2026-05-03 20:24 | 34.25074 | -117.87018 | 27001 ft | 435 kts | 55° |
| 2026-05-03 20:24 | 34.26754 | -117.84020 | 26994 ft | 431 kts | 55° |
| 2026-05-03 20:24 | 34.28434 | -117.81019 | 26996 ft | 433 kts | 55° |
| 2026-05-03 20:24 | 34.30131 | -117.77986 | 27004 ft | 438 kts | 55° |
| 2026-05-03 20:25 | 34.31847 | -117.74918 | 27007 ft | 442 kts | 55° |
| 2026-05-03 20:25 | 34.33575 | -117.71826 | 27010 ft | 442 kts | 55° |
| 2026-05-03 20:25 | 34.35281 | -117.68769 | 26993 ft | 439 kts | 54° |
| 2026-05-03 20:25 | 34.37036 | -117.65738 | 26998 ft | 440 kts | 53° |
| 2026-05-03 20:26 | 34.38834 | -117.62736 | 27006 ft | 440 kts | 53° |
| 2026-05-03 20:26 | 34.40642 | -117.59747 | 27011 ft | 440 kts | 53° |
| 2026-05-03 20:26 | 34.42449 | -117.56757 | 27001 ft | 439 kts | 53° |
| 2026-05-03 20:26 | 34.44246 | -117.53772 | 26997 ft | 438 kts | 53° |
| 2026-05-03 20:27 | 34.46029 | -117.50795 | 26998 ft | 436 kts | 53° |
| 2026-05-03 20:27 | 34.47806 | -117.47817 | 26996 ft | 435 kts | 53° |
| 2026-05-03 20:27 | 34.49571 | -117.44851 | 26998 ft | 433 kts | 53° |
| 2026-05-03 20:27 | 34.51328 | -117.41894 | 26998 ft | 432 kts | 53° |
| 2026-05-03 20:28 | 34.53084 | -117.38935 | 27000 ft | 431 kts | 53° |
| 2026-05-03 20:28 | 34.54834 | -117.35985 | 27000 ft | 431 kts | 53° |
| 2026-05-03 20:28 | 34.56583 | -117.33034 | 27002 ft | 431 kts | 53° |
| 2026-05-03 20:28 | 34.58330 | -117.30083 | 27002 ft | 431 kts | 53° |
| 2026-05-03 20:29 | 34.60079 | -117.27127 | 27001 ft | 431 kts | 53° |
| 2026-05-03 20:29 | 34.61803 | -117.24212 | 27003 ft | 432 kts | 53° |
| 2026-05-03 20:29 | 34.63553 | -117.21249 | 27005 ft | 432 kts | 53° |
| 2026-05-03 20:29 | 34.65308 | -117.18277 | 27006 ft | 433 kts | 53° |
| 2026-05-03 20:30 | 34.67062 | -117.15301 | 27003 ft | 434 kts | 53° |
| 2026-05-03 20:30 | 34.68819 | -117.12321 | 27001 ft | 434 kts | 53° |
| 2026-05-03 20:30 | 34.70575 | -117.09337 | 27001 ft | 435 kts | 53° |
| 2026-05-03 20:30 | 34.72336 | -117.06344 | 27003 ft | 435 kts | 53° |
| 2026-05-03 20:31 | 34.74095 | -117.03351 | 27003 ft | 435 kts | 53° |
| 2026-05-03 20:31 | 34.75856 | -117.00353 | 27000 ft | 435 kts | 53° |
| 2026-05-03 20:31 | 34.77613 | -116.97357 | 26999 ft | 435 kts | 53° |
| 2026-05-03 20:31 | 34.79367 | -116.94367 | 26998 ft | 434 kts | 53° |
| 2026-05-03 20:32 | 34.81119 | -116.91374 | 27001 ft | 434 kts | 53° |
| 2026-05-03 20:32 | 34.82869 | -116.88385 | 27002 ft | 433 kts | 53° |
| 2026-05-03 20:32 | 34.84617 | -116.85396 | 27002 ft | 433 kts | 53° |
| 2026-05-03 20:32 | 34.86361 | -116.82412 | 27001 ft | 432 kts | 53° |
| 2026-05-03 20:33 | 34.88101 | -116.79430 | 26999 ft | 431 kts | 53° |
| 2026-05-03 20:33 | 34.89835 | -116.76458 | 26999 ft | 431 kts | 53° |
| 2026-05-03 20:33 | 34.91570 | -116.73482 | 26999 ft | 430 kts | 53° |
| 2026-05-03 20:33 | 34.93287 | -116.70507 | 26999 ft | 429 kts | 54° |
| 2026-05-03 20:34 | 34.94983 | -116.67513 | 27002 ft | 429 kts | 54° |
| 2026-05-03 20:34 | 34.96673 | -116.64510 | 27002 ft | 429 kts | 54° |
| 2026-05-03 20:34 | 34.98359 | -116.61510 | 27001 ft | 429 kts | 54° |
| 2026-05-03 20:34 | 35.00048 | -116.58504 | 27003 ft | 429 kts | 54° |
| 2026-05-03 20:35 | 35.01738 | -116.55503 | 27001 ft | 428 kts | 54° |
| 2026-05-03 20:35 | 35.03397 | -116.52554 | 26984 ft | 415 kts | 54° |
| 2026-05-03 20:35 | 35.04984 | -116.49733 | 26974 ft | 402 kts | 54° |
| 2026-05-03 20:35 | 35.06561 | -116.46928 | 26507 ft | 399 kts | 54° |
| 2026-05-03 20:36 | 35.08105 | -116.44181 | 26184 ft | 389 kts | 54° |
| 2026-05-03 20:36 | 35.09627 | -116.41471 | 25841 ft | 384 kts | 54° |
| 2026-05-03 20:36 | 35.11210 | -116.38874 | 25480 ft | 379 kts | 48° |
| 2026-05-03 20:36 | 35.12993 | -116.36529 | 25156 ft | 374 kts | 44° |
| 2026-05-03 20:37 | 35.14818 | -116.34293 | 24817 ft | 370 kts | 44° |
| 2026-05-03 20:37 | 35.16621 | -116.32074 | 24479 ft | 366 kts | 44° |
| 2026-05-03 20:37 | 35.18381 | -116.29854 | 24151 ft | 362 kts | 45° |
| 2026-05-03 20:37 | 35.20109 | -116.27632 | 23820 ft | 359 kts | 45° |
| 2026-05-03 20:38 | 35.21818 | -116.25418 | 23493 ft | 357 kts | 45° |
| 2026-05-03 20:38 | 35.23514 | -116.23191 | 23167 ft | 360 kts | 46° |
| 2026-05-03 20:38 | 35.25199 | -116.20888 | 22853 ft | 368 kts | 47° |
| 2026-05-03 20:38 | 35.26916 | -116.18516 | 22507 ft | 374 kts | 47° |
| 2026-05-03 20:39 | 35.28644 | -116.16132 | 22143 ft | 373 kts | 47° |
| 2026-05-03 20:39 | 35.30363 | -116.13771 | 21778 ft | 370 kts | 47° |
| 2026-05-03 20:39 | 35.32071 | -116.11427 | 21412 ft | 367 kts | 47° |
| 2026-05-03 20:39 | 35.33762 | -116.09108 | 21052 ft | 363 kts | 47° |
| 2026-05-03 20:40 | 35.35434 | -116.06811 | 20703 ft | 360 kts | 47° |
| 2026-05-03 20:40 | 35.37086 | -116.04541 | 20342 ft | 352 kts | 47° |
| 2026-05-03 20:40 | 35.38700 | -116.02320 | 19998 ft | 347 kts | 47° |
| 2026-05-03 20:40 | 35.40299 | -116.00121 | 19654 ft | 344 kts | 47° |
| 2026-05-03 20:41 | 35.41886 | -115.97935 | 19302 ft | 342 kts | 47° |
| 2026-05-03 20:41 | 35.43459 | -115.95767 | 18962 ft | 339 kts | 47° |
| 2026-05-03 20:41 | 35.45023 | -115.93610 | 18619 ft | 337 kts | 47° |
| 2026-05-03 20:41 | 35.46574 | -115.91471 | 18268 ft | 334 kts | 47° |
| 2026-05-03 20:42 | 35.48113 | -115.89346 | 17938 ft | 332 kts | 47° |
| 2026-05-03 20:42 | 35.49641 | -115.87236 | 17594 ft | 329 kts | 47° |
| 2026-05-03 20:42 | 35.51157 | -115.85140 | 17262 ft | 327 kts | 47° |
| 2026-05-03 20:42 | 35.52656 | -115.83066 | 17018 ft | 324 kts | 47° |
| 2026-05-03 20:43 | 35.54165 | -115.80978 | 16700 ft | 330 kts | 47° |
| 2026-05-03 20:43 | 35.55678 | -115.78882 | 16402 ft | 325 kts | 47° |
| 2026-05-03 20:43 | 35.57166 | -115.76819 | 15915 ft | 320 kts | 47° |
| 2026-05-03 20:43 | 35.58608 | -115.74820 | 15487 ft | 315 kts | 47° |
| 2026-05-03 20:44 | 35.60065 | -115.72819 | 15165 ft | 313 kts | 46° |
| 2026-05-03 20:44 | 35.61539 | -115.70830 | 14853 ft | 309 kts | 46° |
| 2026-05-03 20:44 | 35.62986 | -115.68885 | 14533 ft | 307 kts | 46° |
| 2026-05-03 20:44 | 35.64427 | -115.66944 | 14165 ft | 307 kts | 46° |
| 2026-05-03 20:45 | 35.65863 | -115.65007 | 13813 ft | 306 kts | 46° |
| 2026-05-03 20:45 | 35.67231 | -115.63159 | 13507 ft | 305 kts | 46° |
| 2026-05-03 20:45 | 35.68675 | -115.61208 | 13242 ft | 300 kts | 46° |
| 2026-05-03 20:45 | 35.70058 | -115.59333 | 13175 ft | 292 kts | 46° |
| 2026-05-03 20:46 | 35.71425 | -115.57482 | 13141 ft | 295 kts | 46° |
| 2026-05-03 20:46 | 35.72838 | -115.55618 | 13135 ft | 299 kts | 40° |
| 2026-05-03 20:46 | 35.74534 | -115.54128 | 13146 ft | 301 kts | 28° |
| 2026-05-03 20:46 | 35.76372 | -115.52874 | 13139 ft | 302 kts | 26° |
| 2026-05-03 20:47 | 35.78219 | -115.51664 | 13138 ft | 303 kts | 26° |
| 2026-05-03 20:47 | 35.80076 | -115.50428 | 13130 ft | 304 kts | 27° |
| 2026-05-03 20:47 | 35.81927 | -115.49172 | 13122 ft | 304 kts | 27° |
| 2026-05-03 20:47 | 35.83771 | -115.47901 | 13129 ft | 303 kts | 27° |
| 2026-05-03 20:48 | 35.85604 | -115.46623 | 13125 ft | 302 kts | 28° |
| 2026-05-03 20:48 | 35.87427 | -115.45346 | 13127 ft | 301 kts | 28° |
| 2026-05-03 20:48 | 35.89248 | -115.44066 | 13129 ft | 301 kts | 28° |
| 2026-05-03 20:48 | 35.91064 | -115.42790 | 13124 ft | 300 kts | 28° |
| 2026-05-03 20:49 | 35.92871 | -115.41529 | 12927 ft | 298 kts | 27° |
| 2026-05-03 20:49 | 35.94673 | -115.40272 | 12624 ft | 297 kts | 28° |
| 2026-05-03 20:49 | 35.96469 | -115.39019 | 12287 ft | 295 kts | 27° |
| 2026-05-03 20:49 | 35.98222 | -115.37795 | 12051 ft | 283 kts | 27° |
| 2026-05-03 20:50 | 35.99878 | -115.36603 | 11824 ft | 270 kts | 34° |
| 2026-05-03 20:50 | 36.01089 | -115.34885 | 11523 ft | 268 kts | 66° |
| 2026-05-03 20:50 | 36.01503 | -115.32678 | 11266 ft | 263 kts | 89° |
| 2026-05-03 20:50 | 36.01426 | -115.30430 | 10960 ft | 261 kts | 93° |
| 2026-05-03 20:51 | 36.01308 | -115.28213 | 10729 ft | 256 kts | 93° |
| 2026-05-03 20:51 | 36.01190 | -115.26054 | 10517 ft | 250 kts | 93° |
| 2026-05-03 20:51 | 36.01075 | -115.23927 | 10215 ft | 247 kts | 93° |
| 2026-05-03 20:51 | 36.00963 | -115.21813 | 9868 ft | 246 kts | 93° |
| 2026-05-03 20:52 | 36.00853 | -115.19708 | 9544 ft | 245 kts | 93° |
| 2026-05-03 20:52 | 36.00747 | -115.17606 | 9155 ft | 248 kts | 93° |
| 2026-05-03 20:52 | 36.00642 | -115.15501 | 9035 ft | 238 kts | 93° |
| 2026-05-03 20:52 | 36.00538 | -115.13470 | 8979 ft | 240 kts | 93° |
| 2026-05-03 20:53 | 36.00431 | -115.11348 | 9001 ft | 251 kts | 93° |
| 2026-05-03 20:53 | 36.00319 | -115.09115 | 8942 ft | 274 kts | 93° |
| 2026-05-03 20:53 | 36.00199 | -115.06762 | 8657 ft | 271 kts | 93° |
| 2026-05-03 20:53 | 36.00083 | -115.04495 | 8411 ft | 259 kts | 93° |
| 2026-05-03 20:54 | 36.00008 | -115.03049 | 8266 ft | 251 kts | 93° |
| 2026-05-03 20:54 | 35.99884 | -114.98834 | 8131 ft | 240 kts | 89° |
| 2026-05-03 20:54 | 35.99893 | -114.96169 | 8017 ft | 231 kts | 89° |
| 2026-05-03 20:55 | 35.99892 | -114.94195 | 7711 ft | 229 kts | 87° |
| 2026-05-03 20:55 | 36.00060 | -114.92887 | 7409 ft | 230 kts | 64° |
| 2026-05-03 20:55 | 36.01065 | -114.91419 | 7084 ft | 226 kts | 31° |
| 2026-05-03 20:55 | 36.02431 | -114.90431 | 6802 ft | 228 kts | 25° |
| 2026-05-03 20:56 | 36.03939 | -114.90001 | 6483 ft | 224 kts | 350° |
| 2026-05-03 20:56 | 36.05322 | -114.90718 | 6364 ft | 209 kts | 326° |
| 2026-05-03 20:56 | 36.06489 | -114.91698 | 6202 ft | 198 kts | 314° |
| 2026-05-03 20:56 | 36.07130 | -114.93171 | 5701 ft | 200 kts | 280° |
| 2026-05-03 20:57 | 36.07292 | -114.94907 | 5047 ft | 207 kts | 276° |
| 2026-05-03 20:57 | 36.07371 | -114.96673 | 4572 ft | 200 kts | 272° |
| 2026-05-03 20:57 | 36.07378 | -114.98364 | 4336 ft | 193 kts | 271° |
| 2026-05-03 20:57 | 36.07374 | -114.99994 | 4073 ft | 187 kts | 271° |
| 2026-05-03 20:58 | 36.07374 | -115.01558 | 3821 ft | 175 kts | 271° |
| 2026-05-03 20:58 | 36.07372 | -115.02972 | 3603 ft | 155 kts | 271° |
| 2026-05-03 20:58 | 36.07372 | -115.04295 | 3403 ft | 154 kts | 271° |
| 2026-05-03 20:58 | 36.07369 | -115.05610 | 3200 ft | 151 kts | 271° |
| 2026-05-03 20:59 | 36.07369 | -115.06877 | 2996 ft | 145 kts | 271° |
| 2026-05-03 20:59 | 36.07369 | -115.08126 | 2821 ft | 146 kts | 271° |
| 2026-05-03 20:59 | 36.07365 | -115.09377 | 2619 ft | 145 kts | 270° |
| 2026-05-03 20:59 | 36.07361 | -115.10621 | 2420 ft | 144 kts | 271° |
| 2026-05-03 21:00 | 36.07363 | -115.11844 | 2251 ft | 141 kts | 271° |
| 2026-05-03 21:00 | 36.07364 | -115.12632 | 2156 ft | 135 kts | 271° |
| 2026-05-03 21:00 | 36.07365 | -115.13917 | 2129 ft | 81 kts | 270° |
| 2026-05-03 21:00 | 36.07366 | -115.14584 | 2131 ft | 75 kts | 270° |
| 2026-05-03 21:01 | 36.07366 | -115.15173 | 2123 ft | 53 kts | 273° |
| 2026-05-03 21:01 | 36.07455 | -115.15482 | 2126 ft | 22 kts | 300° |
| 2026-05-03 21:01 | 36.07478 | -115.15529 | 2127 ft | 2 kts | 303° |
| 2026-05-03 21:01 | 36.07524 | -115.15605 | 2128 ft | 15 kts | 312° |
| 2026-05-03 21:02 | 36.07603 | -115.15704 | 2129 ft | 18 kts | 315° |
| 2026-05-03 21:02 | 36.07708 | -115.15810 | 2128 ft | 15 kts | 335° |
| 2026-05-03 21:02 | 36.07813 | -115.15827 | 2129 ft | 16 kts | 359° |